createdAt,value
2023-01-21T00:01:30.710Z,8.60
2023-01-21T00:04:01.999Z,7.78
2023-01-21T00:06:33.467Z,6.88
2023-01-21T00:09:07.047Z,9.40
2023-01-21T00:11:35.411Z,7.55
2023-01-21T00:14:05.285Z,6.15
2023-01-21T00:16:37.995Z,7.50
2023-01-21T00:19:07.511Z,9.07
2023-01-21T00:21:39.493Z,4.53
2023-01-21T00:24:07.630Z,6.95
2023-01-21T00:26:36.297Z,4.57
2023-01-21T00:29:04.553Z,5.63
2023-01-21T00:31:34.829Z,8.10
2023-01-21T00:34:04.102Z,5.07
2023-01-21T00:36:36.885Z,5.00
2023-01-21T00:39:09.073Z,5.82
2023-01-21T00:44:24.675Z,3.83
2023-01-21T00:46:59.250Z,4.38
2023-01-21T00:49:28.500Z,4.35
2023-01-21T00:51:58.134Z,6.63
2023-01-21T00:54:29.257Z,24.83
2023-01-21T00:57:01.075Z,24.30
2023-01-21T00:59:34.077Z,14.43
2023-01-21T01:04:43.790Z,16.15
2023-01-21T01:07:14.090Z,15.63
2023-01-21T01:09:50.892Z,23.98
2023-01-21T01:12:33.895Z,12.70
2023-01-21T01:15:12.528Z,5.80
2023-01-21T01:17:50.015Z,6.38
2023-01-21T01:20:19.873Z,3.85
2023-01-21T01:22:51.827Z,4.00
2023-01-21T01:25:24.087Z,3.38
2023-01-21T01:27:54.170Z,4.88
2023-01-21T01:30:23.403Z,5.97
2023-01-21T01:32:54.515Z,27.95
2023-01-21T01:35:23.595Z,44.25
2023-01-21T01:37:54.632Z,71.85
2023-01-21T01:40:24.749Z,30.00
2023-01-21T01:42:54.279Z,19.70
2023-01-21T01:45:35.732Z,13.77
2023-01-21T01:48:09.842Z,12.60
2023-01-21T01:50:50.948Z,8.70
2023-01-21T01:53:23.535Z,5.65
2023-01-21T01:55:56.696Z,6.80
2023-01-21T01:58:26.150Z,6.50
2023-01-21T02:00:54.662Z,5.32
2023-01-21T02:03:44.579Z,4.97
2023-01-21T02:06:14.242Z,4.82
2023-01-21T02:08:44.125Z,8.68
2023-01-21T02:11:14.107Z,6.80
2023-01-21T02:13:49.555Z,5.82
2023-01-21T02:16:38.726Z,9.88
2023-01-21T02:19:40.877Z,7.20
2023-01-21T02:22:17.855Z,7.60
2023-01-21T02:25:19.522Z,6.43
2023-01-21T02:27:58.731Z,7.32
2023-01-21T02:31:08.214Z,6.43
2023-01-21T02:33:50.388Z,5.40
2023-01-21T02:36:33.106Z,4.82
2023-01-21T02:39:10.728Z,6.22
2023-01-21T02:41:53.117Z,7.00
2023-01-21T02:44:32.821Z,8.07
2023-01-21T02:47:11.630Z,6.57
2023-01-21T02:49:46.592Z,7.03
2023-01-21T02:52:19.206Z,8.25
2023-01-21T02:54:51.471Z,5.00
2023-01-21T02:57:40.935Z,5.82
2023-01-21T03:00:14.514Z,8.25
2023-01-21T03:03:01.463Z,6.70
2023-01-21T03:05:49.637Z,7.80
2023-01-21T03:08:22.195Z,8.55
2023-01-21T03:10:57.213Z,7.22
2023-01-21T03:13:53.476Z,6.80
2023-01-21T03:16:43.563Z,6.63
2023-01-21T03:19:15.270Z,5.88
2023-01-21T03:21:46.309Z,8.68
2023-01-21T03:24:16.625Z,6.78
2023-01-21T03:26:50.525Z,14.40
2023-01-21T03:29:22.998Z,20.80
2023-01-21T03:31:56.484Z,6.00
2023-01-21T03:34:28.336Z,7.20
2023-01-21T03:37:06.162Z,5.20
2023-01-21T03:39:41.202Z,8.43
2023-01-21T03:42:14.819Z,7.05
2023-01-21T03:44:43.884Z,7.10
2023-01-21T03:47:23.714Z,9.98
2023-01-21T03:50:01.945Z,7.88
2023-01-21T03:52:36.401Z,6.38
2023-01-21T03:55:05.105Z,6.50
2023-01-21T03:57:33.576Z,8.93
2023-01-21T04:00:08.347Z,7.85
2023-01-21T04:02:36.504Z,8.77
2023-01-21T04:05:05.098Z,9.55
2023-01-21T04:07:37.217Z,10.38
2023-01-21T04:10:07.933Z,10.63
2023-01-21T04:12:36.298Z,12.43
2023-01-21T04:15:11.418Z,15.98
2023-01-21T04:17:39.493Z,11.70
2023-01-21T04:20:11.104Z,9.13
2023-01-21T04:22:40.538Z,7.97
2023-01-21T04:25:14.497Z,12.23
2023-01-21T04:27:44.831Z,8.00
2023-01-21T04:30:19.253Z,10.32
2023-01-21T04:32:47.594Z,7.85
2023-01-21T04:35:15.713Z,9.60
2023-01-21T04:37:46.516Z,7.63
2023-01-21T04:40:16.979Z,7.28
2023-01-21T04:42:45.267Z,9.20
2023-01-21T04:45:14.784Z,8.65
2023-01-21T04:47:46.901Z,7.68
2023-01-21T04:50:19.142Z,14.60
2023-01-21T04:52:48.899Z,10.00
2023-01-21T04:55:17.578Z,9.45
2023-01-21T04:57:47.895Z,11.68
2023-01-21T05:00:17.148Z,15.40
2023-01-21T05:02:50.257Z,10.30
2023-01-21T05:05:27.708Z,10.93
2023-01-21T05:07:58.462Z,10.00
2023-01-21T05:10:26.515Z,16.98
2023-01-21T05:12:54.451Z,15.57
2023-01-21T05:15:22.488Z,11.82
2023-01-21T05:17:52.887Z,15.85
2023-01-21T05:20:21.420Z,13.40
2023-01-21T05:22:50.197Z,12.02
2023-01-21T05:25:19.691Z,12.02
2023-01-21T05:27:52.997Z,10.10
2023-01-21T05:30:23.981Z,7.07
2023-01-21T05:32:52.939Z,9.05
2023-01-21T05:35:24.555Z,10.65
2023-01-21T05:37:52.587Z,7.97
2023-01-21T05:40:23.903Z,7.65
2023-01-21T05:42:53.826Z,7.03
2023-01-21T05:45:21.847Z,10.73
2023-01-21T05:47:51.553Z,9.05
2023-01-21T05:50:24.148Z,10.15
2023-01-21T05:52:55.680Z,11.88
2023-01-21T05:55:25.093Z,10.45
2023-01-21T05:58:14.108Z,8.88
2023-01-21T06:00:42.959Z,8.85
2023-01-21T06:03:11.046Z,8.50
2023-01-21T06:05:39.128Z,10.90
2023-01-21T06:08:07.067Z,9.95
2023-01-21T06:10:40.747Z,10.45
2023-01-21T06:13:11.861Z,9.73
2023-01-21T06:15:40.077Z,9.85
2023-01-21T06:18:14.007Z,10.10
2023-01-21T06:20:46.390Z,9.55
2023-01-21T06:23:14.782Z,12.85
2023-01-21T06:25:45.915Z,8.32
2023-01-21T06:28:19.724Z,9.98
2023-01-21T06:30:52.839Z,10.40
2023-01-21T06:33:20.924Z,12.05
2023-01-21T06:35:49.348Z,11.50
2023-01-21T06:38:17.357Z,13.13
2023-01-21T06:40:49.624Z,11.07
2023-01-21T06:43:17.580Z,14.02
2023-01-21T06:45:45.635Z,10.02
2023-01-21T06:48:13.711Z,12.35
2023-01-21T06:50:44.709Z,12.55
2023-01-21T06:53:14.912Z,14.98
2023-01-21T06:55:43.988Z,13.65
2023-01-21T06:58:16.094Z,15.55
2023-01-21T07:00:44.709Z,16.20
2023-01-21T07:03:12.858Z,15.85
2023-01-21T07:05:40.965Z,18.88
2023-01-21T07:08:10.871Z,26.58
2023-01-21T07:10:39.141Z,22.65
2023-01-21T07:13:07.180Z,23.58
2023-01-21T07:15:38.584Z,26.15
2023-01-21T07:18:06.778Z,35.40
2023-01-21T07:20:34.991Z,28.50
2023-01-21T07:23:07.734Z,34.70
2023-01-21T07:25:36.146Z,33.20
2023-01-21T07:28:04.272Z,32.85
2023-01-21T07:30:34.127Z,28.73
2023-01-21T07:33:12.915Z,32.00
2023-01-21T07:35:41.493Z,30.30
2023-01-21T07:38:11.790Z,33.63
2023-01-21T07:40:41.069Z,40.83
2023-01-21T07:43:10.535Z,33.15
2023-01-21T07:45:40.172Z,34.53
2023-01-21T07:48:29.182Z,39.33
2023-01-21T07:50:58.669Z,31.52
2023-01-21T07:53:31.353Z,31.25
2023-01-21T07:56:26.496Z,32.15
2023-01-21T07:59:00.780Z,31.00
2023-01-21T08:01:46.061Z,30.90
2023-01-21T08:04:29.719Z,30.52
2023-01-21T08:06:58.902Z,29.38
2023-01-21T08:09:34.232Z,30.25
2023-01-21T08:12:04.605Z,30.73
2023-01-21T08:14:39.602Z,28.75
2023-01-21T08:17:07.620Z,27.08
2023-01-21T08:19:42.109Z,30.70
2023-01-21T08:22:15.763Z,26.98
2023-01-21T08:25:51.111Z,29.25
2023-01-21T08:43:38.051Z,27.48
2023-01-21T08:56:38.344Z,21.98
2023-01-21T09:00:04.426Z,22.55
2023-01-21T09:02:39.541Z,23.60
2023-01-21T09:16:17.250Z,18.95
2023-01-21T09:22:56.927Z,22.02
2023-01-21T09:32:56.618Z,18.67
2023-01-21T09:35:27.267Z,19.45
2023-01-21T09:37:55.614Z,17.48
2023-01-21T09:40:25.139Z,19.65
2023-01-21T09:42:52.840Z,15.27
2023-01-21T09:45:21.659Z,19.25
2023-01-21T09:47:55.079Z,17.40
2023-01-21T09:50:27.500Z,17.60
2023-01-21T09:53:02.701Z,18.65
2023-01-21T09:55:35.825Z,19.70
2023-01-21T09:58:20.288Z,18.67
2023-01-21T10:00:54.239Z,21.80
2023-01-21T10:03:46.952Z,19.90
2023-01-21T10:06:36.124Z,17.35
2023-01-21T10:09:59.435Z,18.65
2023-01-21T10:16:13.885Z,17.95
2023-01-21T10:19:26.767Z,17.52
2023-01-21T10:22:03.495Z,17.23
2023-01-21T10:24:48.714Z,19.58
2023-01-21T10:27:38.470Z,24.13
2023-01-21T10:33:40.926Z,21.13
2023-01-21T10:36:41.523Z,21.90
2023-01-21T10:39:24.410Z,29.40
2023-01-21T10:42:20.497Z,16.73
2023-01-21T10:45:07.147Z,22.65
2023-01-21T10:47:49.877Z,20.75
2023-01-21T10:50:31.061Z,23.10
2023-01-21T10:53:23.301Z,19.10
2023-01-21T10:56:03.142Z,19.55
2023-01-21T10:58:45.179Z,21.85
2023-01-21T11:01:25.565Z,19.27
2023-01-21T11:03:59.728Z,19.52
2023-01-21T11:09:49.239Z,21.52
2023-01-21T11:12:24.596Z,23.33
2023-01-21T11:14:57.339Z,21.02
2023-01-21T11:20:43.999Z,19.52
2023-01-21T11:23:31.214Z,19.00
2023-01-21T11:26:05.817Z,17.80
2023-01-21T11:28:49.275Z,16.23
2023-01-21T11:31:29.810Z,19.77
2023-01-21T11:34:05.781Z,19.80
2023-01-21T11:36:33.779Z,31.67
2023-01-21T11:39:03.649Z,37.88
2023-01-21T11:41:32.135Z,35.10
2023-01-21T11:44:17.965Z,31.95
2023-01-21T11:46:46.087Z,38.47
2023-01-21T11:49:24.674Z,27.00
2023-01-21T11:52:06.686Z,31.50
2023-01-21T11:54:39.813Z,31.58
2023-01-21T11:57:18.520Z,28.65
2023-01-21T11:59:48.900Z,33.20
2023-01-21T12:02:26.978Z,25.27
2023-01-21T12:04:58.080Z,27.23
2023-01-21T12:07:29.454Z,26.92
2023-01-21T12:10:04.922Z,23.90
2023-01-21T12:12:46.615Z,24.27
2023-01-21T12:15:34.145Z,29.65
2023-01-21T12:18:16.973Z,25.80
2023-01-21T12:20:54.120Z,27.65
2023-01-21T12:23:46.399Z,27.98
2023-01-21T12:26:35.692Z,27.88
2023-01-21T12:29:19.405Z,23.30
2023-01-21T12:31:56.634Z,23.88
2023-01-21T12:34:32.309Z,24.40
2023-01-21T12:37:04.966Z,26.35
2023-01-21T12:39:36.898Z,23.48
2023-01-21T12:42:14.195Z,26.00
2023-01-21T12:44:47.381Z,28.55
2023-01-21T12:47:24.085Z,28.73
2023-01-21T12:50:04.132Z,29.95
2023-01-21T12:52:42.604Z,25.45
2023-01-21T12:55:21.749Z,28.23
2023-01-21T12:57:56.837Z,31.65
2023-01-21T13:00:27.359Z,34.35
2023-01-21T13:03:08.170Z,34.40
2023-01-21T13:05:51.171Z,30.45
2023-01-21T13:08:36.177Z,29.48
2023-01-21T13:11:08.565Z,32.25
2023-01-21T13:13:41.685Z,29.15
2023-01-21T13:16:12.489Z,31.67
2023-01-21T13:18:59.329Z,34.78
2023-01-21T13:21:36.196Z,30.58
2023-01-21T13:24:18.056Z,32.33
2023-01-21T13:26:56.046Z,28.55
2023-01-21T13:29:32.080Z,31.02
2023-01-21T13:32:23.866Z,32.92
2023-01-21T13:35:18.750Z,31.23
2023-01-21T13:37:57.108Z,29.90
2023-01-21T13:40:38.739Z,25.95
2023-01-21T13:43:21.340Z,30.43
2023-01-21T13:46:03.317Z,26.90
2023-01-21T13:48:50.055Z,27.95
2023-01-21T13:51:43.569Z,35.13
2023-01-21T13:54:55.372Z,26.75
2023-01-21T13:57:42.302Z,39.30
2023-01-21T14:00:18.975Z,35.33
2023-01-21T14:02:52.448Z,28.67
2023-01-21T14:05:28.466Z,26.98
2023-01-21T14:08:03.080Z,32.13
2023-01-21T14:10:35.181Z,30.35
2023-01-21T14:13:34.865Z,32.97
2023-01-21T14:16:15.748Z,33.28
2023-01-21T14:18:58.678Z,30.38
2023-01-21T14:21:37.025Z,34.67
2023-01-21T14:24:19.362Z,27.17
2023-01-21T14:27:10.090Z,26.37
2023-01-21T14:29:45.129Z,27.83
2023-01-21T14:32:17.817Z,29.92
2023-01-21T14:34:54.360Z,26.35
2023-01-21T14:37:33.088Z,28.55
2023-01-21T14:40:11.127Z,34.53
2023-01-21T14:42:45.709Z,34.83
2023-01-21T14:45:15.102Z,33.70
2023-01-21T14:47:54.605Z,31.42
2023-01-21T14:50:48.264Z,39.58
2023-01-21T14:53:25.767Z,31.17
2023-01-21T14:56:14.038Z,26.02
2023-01-21T14:58:49.403Z,25.30
2023-01-21T15:01:45.081Z,25.77
2023-01-21T15:04:26.421Z,33.08
2023-01-21T15:06:58.200Z,24.30
2023-01-21T15:09:31.443Z,26.58
2023-01-21T15:12:03.456Z,26.52
2023-01-21T15:14:34.049Z,25.10
2023-01-21T15:17:09.522Z,25.15
2023-01-21T15:19:37.645Z,27.60
2023-01-21T15:22:26.022Z,33.33
2023-01-21T15:25:25.130Z,24.00
2023-01-21T15:28:44.882Z,23.73
2023-01-21T15:31:43.407Z,25.00
2023-01-21T15:34:16.592Z,24.80
2023-01-21T15:36:47.105Z,28.13
2023-01-21T15:39:17.324Z,25.52
2023-01-21T15:41:57.463Z,28.88
2023-01-21T15:44:39.283Z,25.60
2023-01-21T15:47:23.255Z,27.02
2023-01-21T15:50:02.085Z,23.13
2023-01-21T15:52:48.771Z,20.92
2023-01-21T15:55:36.385Z,27.80
2023-01-21T15:58:16.431Z,24.52
2023-01-21T16:00:57.220Z,23.20
2023-01-21T16:03:31.312Z,24.27
2023-01-21T16:06:08.773Z,24.13
2023-01-21T16:08:50.031Z,23.95
2023-01-21T16:11:40.444Z,25.20
2023-01-21T16:14:23.709Z,32.13
2023-01-21T16:19:35.480Z,29.10
2023-01-21T16:22:07.721Z,22.58
2023-01-21T16:24:41.230Z,23.85
2023-01-21T16:27:24.382Z,23.65
2023-01-21T16:32:24.239Z,22.90
2023-01-21T16:34:54.336Z,26.40
2023-01-21T16:37:25.006Z,24.45
2023-01-21T16:39:56.703Z,28.40
2023-01-21T16:42:30.062Z,23.92
2023-01-21T16:44:59.020Z,25.73
2023-01-21T16:47:29.936Z,26.95
2023-01-21T16:49:59.111Z,22.77
2023-01-21T16:52:28.001Z,26.95
2023-01-21T16:54:56.775Z,29.27
2023-01-21T16:57:28.835Z,26.98
2023-01-21T16:59:58.115Z,22.17
2023-01-21T17:02:28.582Z,26.48
2023-01-21T17:04:58.694Z,20.67
2023-01-21T17:07:32.121Z,28.88
2023-01-21T17:10:03.189Z,23.33
2023-01-21T17:12:35.252Z,23.27
2023-01-21T17:17:35.719Z,27.10
2023-01-21T17:20:03.782Z,27.05
2023-01-21T17:22:41.227Z,27.90
2023-01-21T17:25:20.845Z,23.65
2023-01-21T17:27:48.710Z,22.40
2023-01-21T17:30:31.845Z,26.52
2023-01-21T17:33:01.250Z,24.50
2023-01-21T17:35:31.260Z,21.20
2023-01-21T17:38:01.902Z,21.75
2023-01-21T17:40:34.957Z,22.67
2023-01-21T17:43:16.390Z,21.67
2023-01-21T17:45:46.907Z,23.67
2023-01-21T17:48:24.125Z,20.50
2023-01-21T17:50:52.593Z,22.08
2023-01-21T17:53:26.982Z,23.17
2023-01-21T17:56:00.928Z,22.90
2023-01-21T17:58:48.445Z,19.23
2023-01-21T18:01:17.694Z,21.45
2023-01-21T18:03:45.553Z,28.00
2023-01-21T18:06:19.506Z,21.55
2023-01-21T18:08:50.486Z,19.90
2023-01-21T18:11:19.242Z,23.70
2023-01-21T18:13:47.215Z,20.92
2023-01-21T18:16:15.508Z,23.58
2023-01-21T18:18:43.273Z,18.35
2023-01-21T18:21:18.992Z,22.00
2023-01-21T18:23:50.383Z,20.85
2023-01-21T18:26:26.011Z,17.95
2023-01-21T18:28:53.889Z,19.13
2023-01-21T18:31:23.479Z,19.00
2023-01-21T18:33:51.561Z,22.00
2023-01-21T18:36:19.349Z,19.70
2023-01-21T18:38:48.558Z,21.58
2023-01-21T18:41:16.528Z,25.73
2023-01-21T18:43:44.222Z,16.92
2023-01-21T18:46:13.562Z,19.95
2023-01-21T18:48:42.772Z,19.80
2023-01-21T18:51:11.153Z,17.25
2023-01-21T18:53:40.220Z,19.05
2023-01-21T18:56:17.433Z,20.27
2023-01-21T18:58:45.179Z,19.60
2023-01-21T19:01:22.923Z,20.30
2023-01-21T19:03:53.504Z,22.52
2023-01-21T19:06:21.949Z,21.70
2023-01-21T19:08:49.621Z,21.25
2023-01-21T19:11:19.029Z,18.55
2023-01-21T19:13:46.764Z,16.48
2023-01-21T19:16:17.652Z,22.40
2023-01-21T19:18:45.716Z,17.80
2023-01-21T19:21:13.773Z,23.23
2023-01-21T19:23:41.568Z,21.15
2023-01-21T19:26:13.622Z,20.45
2023-01-21T19:28:43.155Z,22.30
2023-01-21T19:31:10.984Z,20.05
2023-01-21T19:33:39.841Z,20.13
2023-01-21T19:36:15.901Z,18.40
2023-01-21T19:38:45.506Z,21.30
2023-01-21T19:41:16.680Z,19.80
2023-01-21T19:43:46.207Z,18.42
2023-01-21T19:46:16.145Z,21.40
2023-01-21T19:48:43.950Z,17.48
2023-01-21T19:51:11.943Z,19.25
2023-01-21T19:53:39.673Z,19.73
2023-01-21T19:56:08.451Z,19.83
2023-01-21T19:58:36.657Z,18.58
2023-01-21T20:01:06.135Z,18.90
2023-01-21T20:03:33.976Z,19.88
2023-01-21T20:06:03.190Z,19.40
2023-01-21T20:08:37.075Z,18.35
2023-01-21T20:11:09.834Z,19.75
2023-01-21T20:13:42.756Z,23.00
2023-01-21T20:18:49.367Z,19.02
2023-01-21T20:21:19.006Z,28.20
2023-01-21T20:23:46.936Z,26.15
2023-01-21T20:26:20.779Z,41.08
2023-01-21T20:28:54.514Z,25.23
2023-01-21T20:31:24.052Z,20.80
2023-01-21T20:33:54.340Z,18.98
2023-01-21T20:36:29.186Z,25.05
2023-01-21T20:39:00.976Z,21.00
2023-01-21T20:41:31.323Z,22.00
2023-01-21T20:44:03.716Z,19.58
2023-01-21T20:46:34.227Z,20.55
2023-01-21T20:49:02.718Z,19.48
2023-01-21T20:51:32.549Z,20.40
2023-01-21T20:54:00.452Z,25.85
2023-01-21T20:56:30.339Z,20.98
2023-01-21T20:59:06.267Z,24.90
2023-01-21T21:01:39.509Z,22.98
2023-01-21T21:04:07.489Z,26.40
2023-01-21T21:06:35.324Z,24.00
2023-01-21T21:09:03.771Z,23.05
2023-01-21T21:11:31.609Z,21.67
2023-01-21T21:14:01.851Z,29.58
2023-01-21T21:16:31.956Z,24.50
2023-01-21T21:19:02.183Z,24.75
2023-01-21T21:21:29.888Z,27.17
2023-01-21T21:23:58.036Z,21.83
2023-01-21T21:26:29.326Z,25.95
2023-01-21T21:28:58.219Z,20.20
2023-01-21T21:31:30.140Z,26.23
2023-01-21T21:34:04.883Z,23.08
2023-01-21T21:36:34.169Z,20.92
2023-01-21T21:39:06.947Z,25.52
2023-01-21T21:41:54.477Z,19.48
2023-01-21T21:44:22.479Z,19.45
2023-01-21T21:47:07.448Z,18.98
2023-01-21T21:49:35.357Z,21.52
2023-01-21T21:52:05.096Z,21.90
2023-01-21T21:54:32.909Z,21.08
2023-01-21T21:57:01.252Z,25.13
2023-01-21T21:59:29.076Z,23.52
2023-01-21T22:01:56.947Z,24.50
2023-01-21T22:04:24.922Z,21.50
2023-01-21T22:06:54.022Z,18.42
2023-01-21T22:09:23.455Z,22.90
2023-01-21T22:11:51.349Z,23.45
2023-01-21T22:14:19.242Z,22.88
2023-01-21T22:16:48.990Z,19.95
2023-01-21T22:19:17.107Z,18.02
2023-01-21T22:21:47.005Z,19.73
2023-01-21T22:24:21.110Z,18.95
2023-01-21T22:26:50.319Z,21.83
2023-01-21T22:29:18.554Z,22.52
2023-01-21T22:31:46.836Z,18.30
2023-01-21T22:34:15.024Z,19.33
2023-01-21T22:36:47.005Z,22.27
2023-01-21T22:39:14.930Z,20.48
2023-01-21T22:41:42.952Z,24.98
2023-01-21T22:44:12.860Z,17.83
2023-01-21T22:46:40.802Z,18.75
2023-01-21T22:49:08.597Z,21.33
2023-01-21T22:51:36.465Z,23.23
2023-01-21T22:54:04.394Z,17.15
2023-01-21T22:56:50.347Z,22.75
2023-01-21T22:59:21.168Z,19.35
2023-01-21T23:01:51.142Z,20.48
2023-01-21T23:04:19.178Z,21.00
2023-01-21T23:06:48.758Z,17.63
2023-01-21T23:09:18.518Z,20.58
2023-01-21T23:11:46.327Z,22.23
2023-01-21T23:14:14.124Z,24.08
2023-01-21T23:16:43.422Z,21.65
2023-01-21T23:19:11.319Z,24.20
2023-01-21T23:21:39.822Z,20.60
2023-01-21T23:24:08.399Z,21.02
2023-01-21T23:26:36.503Z,17.65
2023-01-21T23:29:04.439Z,18.83
2023-01-21T23:31:32.653Z,19.20
2023-01-21T23:34:03.282Z,16.05
2023-01-21T23:36:31.063Z,19.70
2023-01-21T23:38:58.790Z,20.83
2023-01-21T23:41:26.955Z,20.92
2023-01-21T23:43:54.869Z,22.55
2023-01-21T23:46:22.819Z,24.25
2023-01-21T23:48:50.703Z,20.65
2023-01-21T23:51:20.028Z,21.05
2023-01-21T23:53:49.040Z,21.92
2023-01-21T23:56:18.445Z,21.35
2023-01-21T23:58:46.646Z,20.40
